createdAt,value
2018-05-15T00:00:46.379Z,53.85
2018-05-15T00:01:46.335Z,53.75
2018-05-15T00:02:46.299Z,53.56
2018-05-15T00:03:46.246Z,53.75
2018-05-15T00:04:46.224Z,53.75
2018-05-15T00:05:46.164Z,53.85
2018-05-15T00:06:46.108Z,53.75
2018-05-15T00:07:46.067Z,54.04
2018-05-15T00:08:46.015Z,53.56
2018-05-15T00:09:45.994Z,54.13
2018-05-15T00:10:45.928Z,53.85
2018-05-15T00:11:45.883Z,53.94
2018-05-15T00:12:45.837Z,53.56
2018-05-15T00:13:45.793Z,54.11
2018-05-15T00:14:45.765Z,53.66
2018-05-15T00:15:45.700Z,53.56
2018-05-15T00:16:45.656Z,54.13
2018-05-15T00:17:45.608Z,53.66
2018-05-15T00:18:45.570Z,53.56
2018-05-15T00:19:45.543Z,53.94
2018-05-15T00:20:45.472Z,53.66
2018-05-15T00:21:45.428Z,53.75
2018-05-15T00:22:45.381Z,53.56
2018-05-15T00:23:45.338Z,53.66
2018-05-15T00:24:45.314Z,54.04
2018-05-15T00:25:45.245Z,54.13
2018-05-15T00:26:45.198Z,54.11
2018-05-15T00:27:45.156Z,54.04
2018-05-15T00:28:52.326Z,53.72
2018-05-15T00:29:45.095Z,53.63
2018-05-15T00:30:45.019Z,53.63
2018-05-15T00:31:44.973Z,53.53
2018-05-15T00:32:44.925Z,53.72
2018-05-15T00:33:44.880Z,53.91
2018-05-15T00:34:44.872Z,54.01
2018-05-15T00:35:44.787Z,53.34
2018-05-15T00:36:44.749Z,53.91
2018-05-15T00:37:44.697Z,53.53
2018-05-15T00:38:44.652Z,54.01
2018-05-15T00:39:44.610Z,54.21
2018-05-15T00:40:44.587Z,54.01
2018-05-15T00:41:44.519Z,53.72
2018-05-15T00:42:44.475Z,53.63
2018-05-15T00:43:44.421Z,54.01
2018-05-15T00:44:44.408Z,53.72
2018-05-15T00:45:44.360Z,53.72
2018-05-15T00:46:44.287Z,54.11
2018-05-15T00:47:44.243Z,53.82
2018-05-15T00:48:44.197Z,53.82
2018-05-15T00:49:44.154Z,54.21
2018-05-15T00:50:44.128Z,53.53
2018-05-15T00:51:44.059Z,54.11
2018-05-15T00:52:44.016Z,54.21
2018-05-15T00:53:43.970Z,54.11
2018-05-15T00:54:43.925Z,53.91
2018-05-15T00:55:43.898Z,54.21
2018-05-15T00:56:43.829Z,54.01
2018-05-15T00:57:43.797Z,54.21
2018-05-15T00:58:43.741Z,54.30
2018-05-15T00:59:43.696Z,54.58
2018-05-15T01:00:43.677Z,54.01
2018-05-15T01:01:43.611Z,53.82
2018-05-15T01:02:43.559Z,54.01
2018-05-15T01:03:43.513Z,53.99
2018-05-15T01:04:43.467Z,54.17
2018-05-15T01:05:43.441Z,53.89
2018-05-15T01:06:43.375Z,53.70
2018-05-15T01:07:43.329Z,53.91
2018-05-15T01:08:43.282Z,53.79
2018-05-15T01:09:44.061Z,54.11
2018-05-15T01:10:43.220Z,54.37
2018-05-15T01:11:43.150Z,55.13
2018-05-15T01:12:43.106Z,55.13
2018-05-15T01:13:43.057Z,54.46
2018-05-15T01:14:43.014Z,54.37
2018-05-15T01:15:42.986Z,55.33
2018-05-15T01:16:42.915Z,54.85
2018-05-15T01:17:42.880Z,55.23
2018-05-15T01:18:42.835Z,55.33
2018-05-15T01:19:42.782Z,55.42
2018-05-15T01:20:42.770Z,55.33
2018-05-15T01:21:42.695Z,55.71
2018-05-15T01:22:42.645Z,56.00
2018-05-15T01:23:42.600Z,56.19
2018-05-15T01:24:42.550Z,56.19
2018-05-15T01:25:42.506Z,55.90
2018-05-15T01:26:42.487Z,56.19
2018-05-15T01:27:42.418Z,56.19
2018-05-15T01:28:42.372Z,56.35
2018-05-15T01:29:42.325Z,56.86
2018-05-15T01:30:42.280Z,56.96
2018-05-15T01:31:42.256Z,56.54
2018-05-15T01:32:42.184Z,56.64
2018-05-15T01:33:42.139Z,56.54
2018-05-15T01:34:42.095Z,56.74
2018-05-15T01:35:42.052Z,56.93
2018-05-15T01:36:42.023Z,56.83
2018-05-15T01:37:41.957Z,56.93
2018-05-15T01:38:41.911Z,56.83
2018-05-15T01:39:41.866Z,57.12
2018-05-15T01:40:41.819Z,57.03
2018-05-15T01:43:13.355Z,57.41
2018-05-15T01:44:13.284Z,56.74
2018-05-15T01:45:13.238Z,56.83
2018-05-15T01:46:13.216Z,56.93
2018-05-15T01:47:13.148Z,57.12
2018-05-15T01:48:13.098Z,56.74
2018-05-15T01:49:13.052Z,56.35
2018-05-15T01:50:13.006Z,57.12
2018-05-15T01:51:12.982Z,57.03
2018-05-15T01:52:12.914Z,57.12
2018-05-15T01:53:19.938Z,57.03
2018-05-15T01:54:12.821Z,56.54
2018-05-15T01:55:12.773Z,57.98
2018-05-15T01:56:12.754Z,57.60
2018-05-15T01:57:12.684Z,57.31
2018-05-15T01:58:12.637Z,57.31
2018-05-15T01:59:12.598Z,57.41
2018-05-15T02:00:12.546Z,58.08
2018-05-15T02:01:12.521Z,58.27
2018-05-15T02:02:12.467Z,57.79
2018-05-15T02:03:12.408Z,58.17
2018-05-15T02:04:12.362Z,58.17
2018-05-15T02:05:12.340Z,57.86
2018-05-15T02:06:12.293Z,58.37
2018-05-15T02:07:12.221Z,58.34
2018-05-15T02:08:12.258Z,58.15
2018-05-15T02:09:12.132Z,57.98
2018-05-15T02:10:12.088Z,58.34
2018-05-15T02:11:12.069Z,58.53
2018-05-15T02:12:11.991Z,58.34
2018-05-15T02:13:11.944Z,58.05
2018-05-15T02:14:11.900Z,58.44
2018-05-15T02:15:11.865Z,58.44
2018-05-15T02:16:11.859Z,57.86
2018-05-15T02:17:11.760Z,57.76
2018-05-15T02:18:11.715Z,58.34
2018-05-15T02:19:11.665Z,58.34
2018-05-15T02:20:11.667Z,58.44
2018-05-15T02:21:11.604Z,58.72
2018-05-15T02:22:11.529Z,59.11
2018-05-15T02:23:11.487Z,59.30
2018-05-15T02:24:11.438Z,59.20
2018-05-15T02:25:11.390Z,59.39
2018-05-15T02:26:11.373Z,59.68
2018-05-15T02:27:11.299Z,59.68
2018-05-15T02:28:11.256Z,59.48
2018-05-15T02:29:11.207Z,59.77
2018-05-15T02:30:11.161Z,59.58
2018-05-15T02:31:11.137Z,59.68
2018-05-15T02:32:11.071Z,59.68
2018-05-15T02:33:11.023Z,59.48
2018-05-15T02:34:10.979Z,59.58
2018-05-15T02:35:10.933Z,59.87
2018-05-15T02:36:10.908Z,59.87
2018-05-15T02:37:10.837Z,59.77
2018-05-15T02:38:10.792Z,59.68
2018-05-15T02:39:10.749Z,59.58
2018-05-15T02:40:10.701Z,59.65
2018-05-15T02:41:10.679Z,59.77
2018-05-15T02:42:10.608Z,59.77
2018-05-15T02:43:10.564Z,59.65
2018-05-15T02:44:10.515Z,59.77
2018-05-15T02:45:10.468Z,59.94
2018-05-15T02:46:10.445Z,60.03
2018-05-15T02:47:10.373Z,60.51
2018-05-15T02:48:10.331Z,60.51
2018-05-15T02:49:10.282Z,60.89
2018-05-15T02:50:10.244Z,61.37
2018-05-15T02:51:10.189Z,60.61
2018-05-15T02:52:10.167Z,60.89
2018-05-15T02:53:10.100Z,60.70
2018-05-15T02:54:10.053Z,61.18
2018-05-15T02:55:10.005Z,61.28
2018-05-15T02:56:09.958Z,61.57
2018-05-15T02:57:09.938Z,61.76
2018-05-15T02:58:09.866Z,61.76
2018-05-15T02:59:09.822Z,61.66
2018-05-15T03:00:09.779Z,61.18
2018-05-15T03:01:09.727Z,61.94
2018-05-15T03:02:09.707Z,61.57
2018-05-15T03:03:09.633Z,61.47
2018-05-15T03:04:09.587Z,61.47
2018-05-15T03:05:09.540Z,61.57
2018-05-15T03:06:09.497Z,61.28
2018-05-15T03:07:09.475Z,61.94
2018-05-15T03:08:09.402Z,61.94
2018-05-15T03:09:09.354Z,61.66
2018-05-15T03:10:09.309Z,61.66
2018-05-15T03:11:09.261Z,61.57
2018-05-15T03:12:09.241Z,61.47
2018-05-15T03:13:09.170Z,61.28
2018-05-15T03:14:09.122Z,61.47
2018-05-15T03:15:09.078Z,61.66
2018-05-15T03:16:09.026Z,61.18
2018-05-15T03:17:09.003Z,61.66
2018-05-15T03:18:08.939Z,61.28
2018-05-15T03:19:08.892Z,61.18
2018-05-15T03:20:08.842Z,61.66
2018-05-15T03:21:08.795Z,61.37
2018-05-15T03:22:08.777Z,61.18
2018-05-15T03:23:08.712Z,61.57
2018-05-15T03:24:08.657Z,61.08
2018-05-15T03:25:08.608Z,61.47
2018-05-15T03:26:08.567Z,61.37
2018-05-15T03:27:08.546Z,61.66
2018-05-15T03:28:08.474Z,61.28
2018-05-15T03:29:08.425Z,62.14
2018-05-15T03:30:08.380Z,61.37
2018-05-15T03:31:08.329Z,61.57
2018-05-15T03:32:08.317Z,61.37
2018-05-15T03:33:08.241Z,61.54
2018-05-15T03:34:08.193Z,61.54
2018-05-15T03:35:08.147Z,61.94
2018-05-15T03:36:08.097Z,61.57
2018-05-15T03:37:08.080Z,61.28
2018-05-15T03:38:08.009Z,61.54
2018-05-15T03:39:07.965Z,61.63
2018-05-15T03:40:07.915Z,62.40
2018-05-15T03:41:07.867Z,61.72
2018-05-15T03:42:07.848Z,61.54
2018-05-15T03:43:07.777Z,61.57
2018-05-15T03:44:07.726Z,61.57
2018-05-15T03:45:07.680Z,61.47
2018-05-15T03:46:07.634Z,61.18
2018-05-15T03:47:07.607Z,61.85
2018-05-15T03:48:07.543Z,61.57
2018-05-15T03:49:07.497Z,61.47
2018-05-15T03:50:07.449Z,61.76
2018-05-15T03:51:07.407Z,61.66
2018-05-15T03:52:07.378Z,61.28
2018-05-15T03:53:07.307Z,61.72
2018-05-15T03:54:07.263Z,61.57
2018-05-15T03:55:07.214Z,61.37
2018-05-15T03:56:07.167Z,61.57
2018-05-15T03:57:07.146Z,61.63
2018-05-15T03:58:07.083Z,61.18
2018-05-15T03:59:07.033Z,61.85
2018-05-15T04:00:06.987Z,61.28
2018-05-15T04:01:06.935Z,61.18
2018-05-15T04:02:06.913Z,61.47
2018-05-15T04:03:06.838Z,61.28
2018-05-15T04:04:06.797Z,61.47
2018-05-15T04:05:06.747Z,61.37
2018-05-15T04:06:06.705Z,61.57
2018-05-15T04:07:06.686Z,61.28
2018-05-15T04:08:06.610Z,61.76
2018-05-15T04:09:06.563Z,61.85
2018-05-15T04:10:06.517Z,61.85
2018-05-15T04:11:06.581Z,61.94
2018-05-15T04:12:06.446Z,61.94
2018-05-15T04:13:06.376Z,61.57
2018-05-15T04:14:06.330Z,61.94
2018-05-15T04:15:06.285Z,63.10
2018-05-15T04:16:06.240Z,62.43
2018-05-15T04:17:06.225Z,62.62
2018-05-15T04:18:06.145Z,61.94
2018-05-15T04:19:06.097Z,61.57
2018-05-15T04:20:06.050Z,61.57
2018-05-15T04:21:06.006Z,61.85
2018-05-15T04:22:05.957Z,61.37
2018-05-15T04:23:05.936Z,61.85
2018-05-15T04:24:05.863Z,62.90
2018-05-15T04:25:05.821Z,62.43
2018-05-15T04:26:05.773Z,62.14
2018-05-15T04:27:05.729Z,62.23
2018-05-15T04:28:05.712Z,62.62
2018-05-15T04:29:05.636Z,63.10
2018-05-15T04:30:05.585Z,61.94
2018-05-15T04:31:05.540Z,62.33
2018-05-15T04:32:05.497Z,62.52
2018-05-15T04:33:05.469Z,62.33
2018-05-15T04:34:05.403Z,62.33
2018-05-15T04:35:05.464Z,63.39
2018-05-15T04:36:05.307Z,62.14
2018-05-15T04:37:05.261Z,62.62
2018-05-15T04:38:05.242Z,63.00
2018-05-15T04:39:05.169Z,64.15
2018-05-15T04:40:05.128Z,63.39
2018-05-15T04:41:05.081Z,63.10
2018-05-15T04:42:05.032Z,62.90
2018-05-15T04:43:05.006Z,63.19
2018-05-15T04:44:04.948Z,63.29
2018-05-15T04:45:04.894Z,63.76
2018-05-15T04:46:04.846Z,63.76
2018-05-15T04:47:04.805Z,63.96
2018-05-15T04:48:04.781Z,64.34
2018-05-15T04:49:04.707Z,64.25
2018-05-15T04:50:04.674Z,64.15
2018-05-15T04:51:04.615Z,64.72
2018-05-15T04:52:04.572Z,64.43
2018-05-15T04:53:04.550Z,64.37
2018-05-15T04:54:04.480Z,63.42
2018-05-15T04:55:04.434Z,62.74
2018-05-15T04:56:04.386Z,63.03
2018-05-15T04:57:04.343Z,62.65
2018-05-15T04:58:04.315Z,61.21
2018-05-15T04:59:04.245Z,61.72
2018-05-15T05:00:04.200Z,61.24
2018-05-15T05:01:04.157Z,61.05
2018-05-15T05:02:04.198Z,60.96
2018-05-15T05:03:04.088Z,61.43
2018-05-15T05:04:04.019Z,60.67
2018-05-15T05:05:03.972Z,61.53
2018-05-15T05:06:03.930Z,61.24
2018-05-15T05:07:03.875Z,60.76
2018-05-15T05:08:03.854Z,60.67
2018-05-15T05:09:03.792Z,60.96
2018-05-15T05:10:03.742Z,60.96
2018-05-15T05:11:03.697Z,60.76
2018-05-15T05:12:03.657Z,60.47
2018-05-15T05:13:03.629Z,60.47
2018-05-15T05:14:03.558Z,60.76
2018-05-15T05:15:03.513Z,61.27
2018-05-15T05:16:03.467Z,60.76
2018-05-15T05:17:03.423Z,60.86
2018-05-15T05:18:03.466Z,60.76
2018-05-15T05:19:03.329Z,60.57
2018-05-15T05:20:03.285Z,60.86
2018-05-15T05:21:03.339Z,61.05
2018-05-15T05:22:03.254Z,60.38
2018-05-15T05:23:03.173Z,60.47
2018-05-15T05:24:03.106Z,60.09
2018-05-15T05:25:03.055Z,60.41
2018-05-15T05:26:03.010Z,60.38
2018-05-15T05:27:03.050Z,60.57
2018-05-15T05:28:02.945Z,60.99
2018-05-15T05:29:02.873Z,60.41
2018-05-15T05:30:02.833Z,59.45
2018-05-15T05:31:02.784Z,60.12
2018-05-15T05:32:02.735Z,60.12
2018-05-15T05:33:02.723Z,60.60
2018-05-15T05:34:02.674Z,59.86
2018-05-15T05:35:02.601Z,59.86
2018-05-15T05:36:02.555Z,59.00
2018-05-15T05:37:02.512Z,58.52
2018-05-15T05:38:02.494Z,58.36
2018-05-15T05:39:02.421Z,58.17
2018-05-15T05:40:02.438Z,57.97
2018-05-15T05:41:02.339Z,57.78
2018-05-15T05:42:02.293Z,57.50
2018-05-15T05:43:02.268Z,56.92
2018-05-15T05:44:02.192Z,57.85
2018-05-15T05:45:02.148Z,57.65
2018-05-15T05:46:02.103Z,58.45
2018-05-15T05:47:02.056Z,58.17
2018-05-15T05:48:02.042Z,57.97
2018-05-15T05:49:01.970Z,57.88
2018-05-15T05:50:01.937Z,57.56
2018-05-15T05:51:01.880Z,58.33
2018-05-15T05:52:01.856Z,58.42
2018-05-15T05:53:01.816Z,57.56
2018-05-15T05:54:01.740Z,58.23
2018-05-15T05:55:01.701Z,59.00
2018-05-15T05:56:01.653Z,58.52
2018-05-15T05:57:01.617Z,58.33
2018-05-15T05:58:01.586Z,58.74
2018-05-15T05:59:01.514Z,58.81
2018-05-15T06:00:01.474Z,58.14
2018-05-15T06:01:01.427Z,58.14
2018-05-15T06:02:01.381Z,58.33
2018-05-15T06:03:01.361Z,58.42
2018-05-15T06:04:01.290Z,59.67
2018-05-15T06:05:01.247Z,60.15
2018-05-15T06:06:01.203Z,60.15
2018-05-15T06:07:01.154Z,60.53
2018-05-15T06:08:01.131Z,59.67
2018-05-15T06:09:01.064Z,59.67
2018-05-15T06:10:01.023Z,60.44
2018-05-15T06:11:00.971Z,60.75
2018-05-15T06:12:00.929Z,59.99
2018-05-15T06:13:00.904Z,59.80
2018-05-15T06:14:00.840Z,59.80
2018-05-15T06:15:00.801Z,59.51
2018-05-15T06:16:00.752Z,59.32
2018-05-15T06:17:00.704Z,59.89
2018-05-15T06:18:00.682Z,59.32
2018-05-15T06:19:00.614Z,59.99
2018-05-15T06:20:00.569Z,59.80
2018-05-15T06:21:00.526Z,60.40
2018-05-15T06:22:00.478Z,59.92
2018-05-15T06:23:00.457Z,59.44
2018-05-15T06:24:00.385Z,60.21
2018-05-15T06:25:00.346Z,60.21
2018-05-15T06:26:00.297Z,59.34
2018-05-15T06:27:00.253Z,59.44
2018-05-15T06:28:00.245Z,59.54
2018-05-15T06:29:00.163Z,59.44
2018-05-15T06:30:00.123Z,58.87
2018-05-15T06:31:00.074Z,59.25
2018-05-15T06:32:00.031Z,58.58
2018-05-15T06:33:00.006Z,59.06
2018-05-15T06:33:59.941Z,58.10
2018-05-15T06:34:59.895Z,58.03
2018-05-15T06:35:59.848Z,58.51
2018-05-15T06:36:59.811Z,58.58
2018-05-15T06:37:59.786Z,59.47
2018-05-15T06:38:59.716Z,59.76
2018-05-15T06:39:59.676Z,58.13
2018-05-15T06:40:59.679Z,58.32
2018-05-15T06:41:59.588Z,58.22
2018-05-15T06:42:59.558Z,58.64
2018-05-15T06:43:59.503Z,58.15
2018-05-15T06:44:59.445Z,58.64
2018-05-15T06:45:59.405Z,58.15
2018-05-15T06:46:59.358Z,58.35
2018-05-15T06:47:59.347Z,58.06
2018-05-15T06:48:59.270Z,58.73
2018-05-15T06:49:59.226Z,58.54
2018-05-15T06:50:59.188Z,57.97
2018-05-15T06:51:59.134Z,57.77
2018-05-15T06:52:59.093Z,57.68
2018-05-15T06:53:59.070Z,57.77
2018-05-15T06:54:59.000Z,57.48
2018-05-15T06:55:58.958Z,57.60
2018-05-15T06:56:58.912Z,58.64
2018-05-15T06:57:58.868Z,58.35
2018-05-15T06:58:58.848Z,57.10
2018-05-15T06:59:58.783Z,58.42
2018-05-15T07:00:58.737Z,59.38
2018-05-15T07:01:58.692Z,59.76
2018-05-15T07:02:58.648Z,59.86
2018-05-15T07:03:58.632Z,60.05
2018-05-15T07:04:58.559Z,60.72
2018-05-15T07:05:58.514Z,60.63
2018-05-15T07:06:58.469Z,61.97
2018-05-15T07:07:58.426Z,61.01
2018-05-15T07:08:58.407Z,60.43
2018-05-15T07:09:58.338Z,60.72
2018-05-15T07:10:58.294Z,61.11
2018-05-15T07:11:58.250Z,61.40
2018-05-15T07:12:58.205Z,61.58
2018-05-15T07:14:05.423Z,61.81
2018-05-15T07:14:58.119Z,60.91
2018-05-15T07:15:58.073Z,60.75
2018-05-15T07:16:58.028Z,60.17
2018-05-15T07:17:57.983Z,60.08
2018-05-15T07:18:57.965Z,61.14
2018-05-15T07:19:57.898Z,61.14
2018-05-15T07:20:57.848Z,62.19
2018-05-15T07:21:57.805Z,60.66
2018-05-15T07:22:57.755Z,62.00
2018-05-15T07:23:57.738Z,60.94
2018-05-15T07:24:57.668Z,62.10
2018-05-15T07:25:57.630Z,61.81
2018-05-15T07:26:57.578Z,61.04
2018-05-15T07:27:57.538Z,61.23
2018-05-15T07:28:57.523Z,61.07
2018-05-15T07:29:57.448Z,60.59
2018-05-15T07:30:57.404Z,60.97
2018-05-15T07:31:57.360Z,61.00
2018-05-15T07:32:57.315Z,62.06
2018-05-15T07:33:57.295Z,59.17
2018-05-15T07:34:57.225Z,58.57
2018-05-15T07:35:57.183Z,59.53
2018-05-15T07:36:57.137Z,60.01
2018-05-15T07:37:57.094Z,60.14
2018-05-15T07:38:57.073Z,59.56
2018-05-15T07:39:57.008Z,57.54
2018-05-15T07:40:56.960Z,58.98
2018-05-15T07:41:56.915Z,59.56
2018-05-15T07:42:56.871Z,56.77
2018-05-15T07:43:56.853Z,57.25
2018-05-15T07:44:56.858Z,57.15
2018-05-15T07:45:56.742Z,57.73
2018-05-15T07:46:56.696Z,58.02
2018-05-15T07:47:56.654Z,57.76
2018-05-15T07:48:56.632Z,58.22
2018-05-15T07:49:56.563Z,58.15
2018-05-15T07:50:56.526Z,59.56
2018-05-15T07:51:56.477Z,59.47
2018-05-15T07:52:56.431Z,59.37
2018-05-15T07:53:56.415Z,59.75
2018-05-15T07:54:56.343Z,59.47
2018-05-15T07:55:56.302Z,59.08
2018-05-15T07:56:56.264Z,59.56
2018-05-15T07:57:56.217Z,58.12
2018-05-15T07:58:56.188Z,59.17
2018-05-15T07:59:56.129Z,59.37
2018-05-15T08:00:56.081Z,59.17
2018-05-15T08:01:56.040Z,58.31
2018-05-15T08:02:55.994Z,58.31
2018-05-15T08:03:55.976Z,58.79
2018-05-15T08:04:55.908Z,58.60
2018-05-15T08:05:55.864Z,59.37
2018-05-15T08:07:02.912Z,59.37
2018-05-15T08:07:55.773Z,60.33
2018-05-15T08:08:55.752Z,61.00
2018-05-15T08:09:55.686Z,60.72
2018-05-15T08:10:55.641Z,61.39
2018-05-15T08:11:55.599Z,61.29
2018-05-15T08:12:55.553Z,61.29
2018-05-15T08:13:55.535Z,60.91
2018-05-15T08:14:55.464Z,60.72
2018-05-15T08:15:55.423Z,60.72
2018-05-15T08:16:55.377Z,62.06
2018-05-15T08:17:55.333Z,61.10
2018-05-15T08:18:55.312Z,60.81
2018-05-15T08:19:55.248Z,61.58
2018-05-15T08:20:55.205Z,61.97
2018-05-15T08:21:55.159Z,61.10
2018-05-15T08:22:55.113Z,61.39
2018-05-15T08:23:55.093Z,61.77
2018-05-15T08:24:55.026Z,62.06
2018-05-15T08:25:54.980Z,62.26
2018-05-15T08:26:54.937Z,63.22
2018-05-15T08:27:54.893Z,63.22
2018-05-15T08:28:54.874Z,61.77
2018-05-15T08:29:54.805Z,62.16
2018-05-15T08:30:54.876Z,63.31
2018-05-15T08:31:54.718Z,62.45
2018-05-15T08:32:54.677Z,62.06
2018-05-15T08:33:54.661Z,62.16
2018-05-15T08:34:54.589Z,61.97
2018-05-15T08:35:54.539Z,61.68
2018-05-15T08:36:54.496Z,62.35
2018-05-15T08:37:54.452Z,62.06
2018-05-15T08:38:54.431Z,64.08
2018-05-15T08:39:54.362Z,62.83
2018-05-15T08:40:54.319Z,62.16
2018-05-15T08:41:54.280Z,61.68
2018-05-15T08:42:54.233Z,61.97
2018-05-15T08:43:54.210Z,61.68
2018-05-15T08:44:54.152Z,62.06
2018-05-15T08:45:54.100Z,62.45
2018-05-15T08:46:54.057Z,61.97
2018-05-15T08:47:54.014Z,62.64
2018-05-15T08:48:53.993Z,64.28
2018-05-15T08:49:53.927Z,63.22
2018-05-15T08:50:53.886Z,63.89
2018-05-15T08:51:53.838Z,63.51
2018-05-15T08:52:53.796Z,61.80
2018-05-15T08:53:53.776Z,61.71
2018-05-15T08:54:53.706Z,62.87
2018-05-15T08:55:53.660Z,61.90
2018-05-15T08:56:53.618Z,60.07
2018-05-15T08:57:53.573Z,61.22
2018-05-15T08:58:53.553Z,61.90
2018-05-15T08:59:53.485Z,61.90
2018-05-15T09:00:53.443Z,60.17
2018-05-15T09:01:53.396Z,60.39
2018-05-15T09:02:53.353Z,60.20
2018-05-15T09:03:53.333Z,58.37
2018-05-15T09:04:53.273Z,57.98
2018-05-15T09:05:53.223Z,57.67
2018-05-15T09:06:53.180Z,57.60
2018-05-15T09:07:53.136Z,56.92
2018-05-15T09:08:53.119Z,56.54
2018-05-15T09:09:53.048Z,57.02
2018-05-15T09:10:53.006Z,56.92
2018-05-15T09:11:52.961Z,56.63
2018-05-15T09:12:52.918Z,57.02
2018-05-15T09:13:52.896Z,57.12
2018-05-15T09:14:52.831Z,55.96
2018-05-15T09:15:52.791Z,57.98
2018-05-15T09:16:52.747Z,57.89
2018-05-15T09:17:52.700Z,57.02
2018-05-15T09:18:52.679Z,58.40
2018-05-15T09:19:52.617Z,59.84
2018-05-15T09:20:52.572Z,58.08
2018-05-15T09:21:52.527Z,57.82
2018-05-15T09:22:52.482Z,58.59
2018-05-15T09:23:52.465Z,57.82
2018-05-15T09:24:52.396Z,55.99
2018-05-15T09:25:52.352Z,56.95
2018-05-15T09:26:52.312Z,56.18
2018-05-15T09:27:52.272Z,56.27
2018-05-15T09:28:52.245Z,56.95
2018-05-15T09:29:52.180Z,57.05
2018-05-15T09:30:52.139Z,56.09
2018-05-15T09:31:52.095Z,55.89
2018-05-15T09:32:52.051Z,55.70
2018-05-15T09:33:52.044Z,55.31
2018-05-15T09:34:51.965Z,54.61
2018-05-15T09:35:51.923Z,55.70
2018-05-15T09:36:51.878Z,56.47
2018-05-15T09:37:51.838Z,58.01
2018-05-15T09:38:51.795Z,57.82
2018-05-15T09:39:51.773Z,56.76
2018-05-15T09:40:51.712Z,57.43
2018-05-15T09:41:51.665Z,58.62
2018-05-15T09:42:51.621Z,57.75
2018-05-15T09:43:51.582Z,57.10
2018-05-15T09:44:51.558Z,54.88
2018-05-15T09:45:51.494Z,52.86
2018-05-15T09:46:51.495Z,52.95
2018-05-15T09:47:51.405Z,53.92
2018-05-15T09:48:51.366Z,54.40
2018-05-15T09:49:51.346Z,55.36
2018-05-15T09:50:51.282Z,53.83
2018-05-15T09:51:51.241Z,53.34
2018-05-15T09:52:51.199Z,52.89
2018-05-15T09:53:51.153Z,53.47
2018-05-15T09:54:51.132Z,54.05
2018-05-15T09:55:51.068Z,52.98
2018-05-15T09:56:51.026Z,52.98
2018-05-15T09:57:50.983Z,52.89
2018-05-15T09:58:50.939Z,52.79
2018-05-15T09:59:50.920Z,52.91
2018-05-15T10:00:51.028Z,51.85
2018-05-15T10:01:50.823Z,52.89
2018-05-15T10:02:50.771Z,52.59
2018-05-15T10:03:50.729Z,52.91
2018-05-15T10:04:50.710Z,50.96
2018-05-15T10:05:50.646Z,50.86
2018-05-15T10:06:50.603Z,49.99
2018-05-15T10:07:50.652Z,52.11
2018-05-15T10:08:50.532Z,51.92
2018-05-15T10:09:50.501Z,50.96
2018-05-15T10:10:50.438Z,51.25
2018-05-15T10:11:50.416Z,49.90
2018-05-15T10:12:50.358Z,49.70
2018-05-15T10:13:50.307Z,50.76
2018-05-15T10:14:50.313Z,48.25
2018-05-15T10:15:50.230Z,49.22
2018-05-15T10:16:50.185Z,50.18
2018-05-15T10:17:50.144Z,50.67
2018-05-15T10:18:50.102Z,49.44
2018-05-15T10:19:50.088Z,48.06
2018-05-15T10:20:50.017Z,49.70
2018-05-15T10:21:49.975Z,49.53
2018-05-15T10:22:49.932Z,49.82
2018-05-15T10:23:49.894Z,50.89
2018-05-15T10:24:49.869Z,50.01
2018-05-15T10:25:49.807Z,47.50
2018-05-15T10:26:49.765Z,45.76
2018-05-15T10:27:49.724Z,46.34
2018-05-15T10:28:49.682Z,46.83
2018-05-15T10:29:49.734Z,45.76
2018-05-15T10:30:49.598Z,46.25
2018-05-15T10:31:49.560Z,46.25
2018-05-15T10:32:49.515Z,47.02
2018-05-15T10:33:49.477Z,45.96
2018-05-15T10:34:49.452Z,45.28
2018-05-15T10:35:49.390Z,44.32
2018-05-15T10:36:49.351Z,45.28
2018-05-15T10:37:49.306Z,45.96
2018-05-15T10:38:49.262Z,45.86
2018-05-15T10:39:49.251Z,45.76
2018-05-15T10:40:57.290Z,44.32
2018-05-15T10:41:49.139Z,46.06
2018-05-15T10:42:49.103Z,44.90
2018-05-15T10:43:49.076Z,42.58
2018-05-15T10:44:49.039Z,42.87
2018-05-15T10:45:48.976Z,45.00
2018-05-15T10:46:48.928Z,46.06
2018-05-15T10:47:48.887Z,47.02
2018-05-15T10:48:48.847Z,46.73
2018-05-15T10:49:48.831Z,46.83
2018-05-15T10:50:48.845Z,46.73
2018-05-15T10:51:48.721Z,46.73
2018-05-15T10:52:48.675Z,46.64
2018-05-15T10:53:48.641Z,48.47
2018-05-15T10:54:48.622Z,46.83
2018-05-15T10:55:48.554Z,44.80
2018-05-15T10:56:48.513Z,43.54
2018-05-15T10:57:48.467Z,44.51
2018-05-15T10:58:48.438Z,44.42
2018-05-15T10:59:48.410Z,44.22
2018-05-15T11:00:48.345Z,44.80
2018-05-15T11:01:48.304Z,45.48
2018-05-15T11:02:48.257Z,43.93
2018-05-15T11:03:48.216Z,44.60
2018-05-15T11:04:48.201Z,45.18
2018-05-15T11:05:48.138Z,46.15
2018-05-15T11:06:48.093Z,46.44
2018-05-15T11:07:48.048Z,47.05
2018-05-15T11:08:48.018Z,46.83
2018-05-15T11:09:47.990Z,45.57
2018-05-15T11:10:47.923Z,45.76
2018-05-15T11:11:47.878Z,46.92
2018-05-15T11:12:47.928Z,47.12
2018-05-15T11:13:47.797Z,45.40
2018-05-15T11:14:47.780Z,44.92
2018-05-15T11:15:47.714Z,44.32
2018-05-15T11:16:47.670Z,44.42
2018-05-15T11:17:47.630Z,45.09
2018-05-15T11:18:47.584Z,44.32
2018-05-15T11:19:47.566Z,46.06
2018-05-15T11:20:47.502Z,46.83
2018-05-15T11:21:47.463Z,45.48
2018-05-15T11:22:47.417Z,44.80
2018-05-15T11:23:47.382Z,44.90
2018-05-15T11:24:47.356Z,45.38
2018-05-15T11:25:47.290Z,46.64
2018-05-15T11:26:47.248Z,45.96
2018-05-15T11:27:47.205Z,45.00
2018-05-15T11:28:47.163Z,44.70
2018-05-15T11:29:47.161Z,45.00
2018-05-15T11:30:47.086Z,45.00
2018-05-15T11:31:47.038Z,44.51
2018-05-15T11:32:46.998Z,43.57
2018-05-15T11:33:46.954Z,43.95
2018-05-15T11:34:46.910Z,45.50
2018-05-15T11:35:46.909Z,46.27
2018-05-15T11:36:46.830Z,45.86
2018-05-15T11:37:46.787Z,44.32
2018-05-15T11:38:46.747Z,43.45
2018-05-15T11:39:46.701Z,47.02
2018-05-15T11:40:46.684Z,45.76
2018-05-15T11:41:54.366Z,46.06
2018-05-15T11:42:46.570Z,46.54
2018-05-15T11:43:46.532Z,49.24
2018-05-15T11:44:46.489Z,47.50
2018-05-15T11:45:46.475Z,47.70
2018-05-15T11:46:46.404Z,47.99
2018-05-15T11:47:46.632Z,48.88
2018-05-15T11:48:46.881Z,46.08
2018-05-15T11:49:47.034Z,46.17
2018-05-15T11:50:46.837Z,47.91
2018-05-15T11:51:47.084Z,46.95
2018-05-15T11:52:46.595Z,48.52
2018-05-15T11:53:46.111Z,46.49
2018-05-15T11:54:46.066Z,46.30
2018-05-15T11:55:46.049Z,43.49
2018-05-15T11:56:45.984Z,44.05
2018-05-15T11:57:45.939Z,43.85
2018-05-15T11:58:45.898Z,43.66
2018-05-15T11:59:45.895Z,45.89
2018-05-15T12:00:45.845Z,46.75
2018-05-15T12:01:45.774Z,45.40
2018-05-15T12:02:45.756Z,44.63
2018-05-15T12:03:45.697Z,44.43
2018-05-15T12:04:45.650Z,45.50
2018-05-15T12:05:45.627Z,45.98
2018-05-15T12:06:45.559Z,45.79
2018-05-15T12:07:45.518Z,44.43
2018-05-15T12:08:45.482Z,43.37
2018-05-15T12:09:45.438Z,43.28
2018-05-15T12:10:45.416Z,43.57
2018-05-15T12:11:45.354Z,43.47
2018-05-15T12:12:45.313Z,43.47
2018-05-15T12:13:45.279Z,43.85
2018-05-15T12:14:45.226Z,44.53
2018-05-15T12:15:45.205Z,44.82
2018-05-15T12:16:45.150Z,43.85
2018-05-15T12:17:45.101Z,43.47
2018-05-15T12:18:45.057Z,44.24
2018-05-15T12:19:45.019Z,43.76
2018-05-15T12:20:44.994Z,43.47
2018-05-15T12:21:44.931Z,43.37
2018-05-15T12:22:44.886Z,41.54
2018-05-15T12:23:44.845Z,41.63
2018-05-15T12:24:44.802Z,44.56
2018-05-15T12:25:44.865Z,44.65
2018-05-15T12:26:44.718Z,43.98
2018-05-15T12:27:44.676Z,43.10
2018-05-15T12:28:44.635Z,43.98
2018-05-15T12:29:44.623Z,43.68
2018-05-15T12:30:44.579Z,44.36
2018-05-15T12:31:44.514Z,43.59
2018-05-15T12:32:44.465Z,43.01
2018-05-15T12:33:44.430Z,42.24
2018-05-15T12:34:44.380Z,42.43
2018-05-15T12:35:44.368Z,42.24
2018-05-15T12:36:44.298Z,42.14
2018-05-15T12:37:44.260Z,43.98
2018-05-15T12:38:44.218Z,43.61
2018-05-15T12:39:44.172Z,42.62
2018-05-15T12:40:44.177Z,42.62
2018-05-15T12:41:44.121Z,40.50
2018-05-15T12:42:44.047Z,40.59
2018-05-15T12:43:44.007Z,41.94
2018-05-15T12:44:43.968Z,39.92
2018-05-15T12:45:43.945Z,40.78
2018-05-15T12:46:43.973Z,42.33
2018-05-15T12:47:43.846Z,41.54
2018-05-15T12:48:43.850Z,41.54
2018-05-15T12:49:43.760Z,39.61
2018-05-15T12:50:43.738Z,40.47
2018-05-15T12:51:43.674Z,40.09
2018-05-15T12:52:43.633Z,41.44
2018-05-15T12:53:43.593Z,39.99